Seal Rock, OR (97376)

2:59 PM PDT on September 01, 2015 (GMT -0700)
Ona Beach | | Change Station
CLOSE
Current Station
Personal Weather Station
Location: South Beach, OR
Elevation: 60 ft
Nearby Weather Stations

Elev 60 ft 44.53 °N, 124.07 °W | Updated 46 seconds ago

Partly Cloudy
Partly Cloudy
64.9 °F
Feels Like 64.9 °F
N
2.0
Wind Variable Wind from SSE
Gusts 10.0 mph

Today
High -- | Low -- °F
--% Chance of Precip.
Yesterday
High -- | Low -- °F
Precip. -- in
6:38 AM 7:52 PM
Waning Gibbous, 86% visible
Pressure 29.95 in
Visibility 7.0 miles
Clouds Scattered Clouds 2500 ft
Overcast 3200 ft
Dew Point 61 °F
Humidity 86%
Rainfall 0.00 in
Snow Depth Not available.
UV 2 out of 12
Pollen 3.20 out of 12
Air Quality Not available.
Flu Activity Not available.
METAR KONP 012155Z AUTO 20012G16KT 7SM SCT025 OVC032 18/15 A2995 RMK AO2
Pressure 29.95 in
Visibility 7.0 miles
Clouds Scattered Clouds 2500 ft
Overcast 3200 ft
Dew Point 61 °F
Humidity 86%
Rainfall 0.00 in
Snow Depth Not available.
UV 2 out of 12
Pollen 3.20 out of 12
Air Quality Not available.
Flu Activity Not available.
METAR KONP 012155Z AUTO 20012G16KT 7SM SCT025 OVC032 18/15 A2995 RMK AO2

10-Day Weather Forecast

×

Almanac

Astronomy

Sep. 01, 2015 Rise Set
Actual Time
Civil Twilight
Nautical Twilight
Astronomical Twilight
Moon
Length of Visible Light
Length of Day
Tomorrow will be .
, % of the Moon is Illuminated

Today's Extremes

State Highs State Lows

Community

WunderPhotos

Upload Photos

1,851,628 photos uploaded!

WunderBlogs® & News

Nearby

Air Quality

  Air Quality AQ Index Pollutant
Not available.

Snow Depth

Station Depth Elevation

Earthquake Activity

City Distance Mag. Time & Date
Minimum magnitude displayed is 2.5.

Coastal Water Temperatures

Place Temperature

Stations

Nearby Weather Stations

Station Location Temp. Windchill Dew Point Humidity Wind Precip. Elev Updated Type